sensor_id;sensor_type;location;lat;lon;timestamp;temperature;humidity
41481;DHT22;27217;51.220;5.308;2023-01-15T00:01:25;8.20;99.90
41481;DHT22;27217;51.220;5.308;2023-01-15T00:03:52;8.10;99.90
41481;DHT22;27217;51.220;5.308;2023-01-15T00:06:18;8.20;99.90
41481;DHT22;27217;51.220;5.308;2023-01-15T00:08:45;8.10;99.90
41481;DHT22;27217;51.220;5.308;2023-01-15T00:11:11;8.10;99.90
41481;DHT22;27217;51.220;5.308;2023-01-15T00:13:38;7.90;99.90
41481;DHT22;27217;51.220;5.308;2023-01-15T00:16:09;8.00;99.90
41481;DHT22;27217;51.220;5.308;2023-01-15T00:18:36;8.00;99.90
41481;DHT22;27217;51.220;5.308;2023-01-15T00:21:03;8.00;99.90
41481;DHT22;27217;51.220;5.308;2023-01-15T00:23:30;7.90;99.90
41481;DHT22;27217;51.220;5.308;2023-01-15T00:26:17;7.70;99.90
41481;DHT22;27217;51.220;5.308;2023-01-15T00:29:02;7.60;99.90
41481;DHT22;27217;51.220;5.308;2023-01-15T00:31:29;7.60;99.90
41481;DHT22;27217;51.220;5.308;2023-01-15T00:33:56;7.80;99.90
41481;DHT22;27217;51.220;5.308;2023-01-15T00:36:21;7.90;99.90
41481;DHT22;27217;51.220;5.308;2023-01-15T00:38:47;8.00;99.90
41481;DHT22;27217;51.220;5.308;2023-01-15T00:41:14;8.00;99.90
41481;DHT22;27217;51.220;5.308;2023-01-15T00:43:40;7.90;99.90
41481;DHT22;27217;51.220;5.308;2023-01-15T00:46:06;7.90;99.90
41481;DHT22;27217;51.220;5.308;2023-01-15T00:48:33;7.80;99.90
41481;DHT22;27217;51.220;5.308;2023-01-15T00:50:59;7.90;99.90
41481;DHT22;27217;51.220;5.308;2023-01-15T00:53:25;7.80;99.90
41481;DHT22;27217;51.220;5.308;2023-01-15T00:55:51;7.70;99.90
41481;DHT22;27217;51.220;5.308;2023-01-15T00:58:17;7.70;99.90
41481;DHT22;27217;51.220;5.308;2023-01-15T01:00:42;7.70;99.90
41481;DHT22;27217;51.220;5.308;2023-01-15T01:03:09;7.60;99.90
41481;DHT22;27217;51.220;5.308;2023-01-15T01:05:35;7.70;99.90
41481;DHT22;27217;51.220;5.308;2023-01-15T01:08:01;7.70;99.90
41481;DHT22;27217;51.220;5.308;2023-01-15T01:10:27;7.80;99.90
41481;DHT22;27217;51.220;5.308;2023-01-15T01:12:53;8.00;99.90
41481;DHT22;27217;51.220;5.308;2023-01-15T01:15:21;7.80;99.90
41481;DHT22;27217;51.220;5.308;2023-01-15T01:17:47;7.60;99.90
41481;DHT22;27217;51.220;5.308;2023-01-15T01:20:14;7.60;99.90
41481;DHT22;27217;51.220;5.308;2023-01-15T01:22:41;7.80;99.90
41481;DHT22;27217;51.220;5.308;2023-01-15T01:25:08;7.80;99.90
41481;DHT22;27217;51.220;5.308;2023-01-15T01:27:34;7.90;99.90
41481;DHT22;27217;51.220;5.308;2023-01-15T01:30:00;7.90;99.90
41481;DHT22;27217;51.220;5.308;2023-01-15T01:32:25;7.80;99.90
41481;DHT22;27217;51.220;5.308;2023-01-15T01:34:51;7.90;99.90
41481;DHT22;27217;51.220;5.308;2023-01-15T01:37:17;7.80;99.90
41481;DHT22;27217;51.220;5.308;2023-01-15T01:39:43;8.00;99.90
41481;DHT22;27217;51.220;5.308;2023-01-15T01:42:12;8.00;99.90
41481;DHT22;27217;51.220;5.308;2023-01-15T01:47:07;8.20;99.90
41481;DHT22;27217;51.220;5.308;2023-01-15T01:49:35;8.20;99.90
41481;DHT22;27217;51.220;5.308;2023-01-15T01:52:09;8.10;99.90
41481;DHT22;27217;51.220;5.308;2023-01-15T01:54:38;8.00;99.90
41481;DHT22;27217;51.220;5.308;2023-01-15T01:57:06;7.70;99.90
41481;DHT22;27217;51.220;5.308;2023-01-15T01:59:32;7.80;99.90
41481;DHT22;27217;51.220;5.308;2023-01-15T02:01:59;8.00;99.90
41481;DHT22;27217;51.220;5.308;2023-01-15T02:04:26;7.80;99.90
41481;DHT22;27217;51.220;5.308;2023-01-15T02:06:53;8.00;99.90
41481;DHT22;27217;51.220;5.308;2023-01-15T02:09:19;7.90;99.90
41481;DHT22;27217;51.220;5.308;2023-01-15T02:11:45;8.00;99.90
41481;DHT22;27217;51.220;5.308;2023-01-15T02:14:35;8.00;99.90
41481;DHT22;27217;51.220;5.308;2023-01-15T02:17:15;7.90;99.90
41481;DHT22;27217;51.220;5.308;2023-01-15T02:20:34;7.80;99.90
41481;DHT22;27217;51.220;5.308;2023-01-15T02:26:00;8.10;99.90
41481;DHT22;27217;51.220;5.308;2023-01-15T02:28:42;7.90;99.90
41481;DHT22;27217;51.220;5.308;2023-01-15T02:31:14;7.90;99.90
41481;DHT22;27217;51.220;5.308;2023-01-15T02:34:00;7.70;99.90
41481;DHT22;27217;51.220;5.308;2023-01-15T02:36:30;7.80;99.90
41481;DHT22;27217;51.220;5.308;2023-01-15T02:38:58;7.90;99.90
41481;DHT22;27217;51.220;5.308;2023-01-15T02:41:34;7.90;99.90
41481;DHT22;27217;51.220;5.308;2023-01-15T02:44:02;7.90;99.90
41481;DHT22;27217;51.220;5.308;2023-01-15T02:46:33;8.00;99.90
41481;DHT22;27217;51.220;5.308;2023-01-15T02:49:01;8.00;99.90
41481;DHT22;27217;51.220;5.308;2023-01-15T02:51:33;7.70;99.90
41481;DHT22;27217;51.220;5.308;2023-01-15T02:54:03;7.70;99.90
41481;DHT22;27217;51.220;5.308;2023-01-15T02:56:32;7.70;99.90
41481;DHT22;27217;51.220;5.308;2023-01-15T02:59:04;7.70;99.90
41481;DHT22;27217;51.220;5.308;2023-01-15T03:01:49;7.70;99.90
41481;DHT22;27217;51.220;5.308;2023-01-15T03:06:53;7.60;99.90
41481;DHT22;27217;51.220;5.308;2023-01-15T03:09:22;7.60;99.90
41481;DHT22;27217;51.220;5.308;2023-01-15T03:12:00;7.70;99.90
41481;DHT22;27217;51.220;5.308;2023-01-15T03:17:19;7.70;99.90
41481;DHT22;27217;51.220;5.308;2023-01-15T03:19:57;7.70;99.90
41481;DHT22;27217;51.220;5.308;2023-01-15T03:22:36;7.80;99.90
41481;DHT22;27217;51.220;5.308;2023-01-15T03:25:10;7.80;99.90
41481;DHT22;27217;51.220;5.308;2023-01-15T03:27:38;7.80;99.90
41481;DHT22;27217;51.220;5.308;2023-01-15T03:32:35;7.80;99.90
41481;DHT22;27217;51.220;5.308;2023-01-15T03:35:00;7.70;99.90
41481;DHT22;27217;51.220;5.308;2023-01-15T03:37:29;7.80;99.90
41481;DHT22;27217;51.220;5.308;2023-01-15T03:39:57;7.90;99.90
41481;DHT22;27217;51.220;5.308;2023-01-15T03:42:56;7.80;99.90
41481;DHT22;27217;51.220;5.308;2023-01-15T03:45:44;7.70;99.90
41481;DHT22;27217;51.220;5.308;2023-01-15T03:48:25;7.70;99.90
41481;DHT22;27217;51.220;5.308;2023-01-15T03:51:47;7.60;99.90
41481;DHT22;27217;51.220;5.308;2023-01-15T03:54:10;7.70;99.90
41481;DHT22;27217;51.220;5.308;2023-01-15T03:56:51;7.80;99.90
41481;DHT22;27217;51.220;5.308;2023-01-15T03:59:38;7.70;99.90
41481;DHT22;27217;51.220;5.308;2023-01-15T04:02:07;7.80;99.90
41481;DHT22;27217;51.220;5.308;2023-01-15T04:04:34;7.70;99.90
41481;DHT22;27217;51.220;5.308;2023-01-15T04:07:01;7.70;99.90
41481;DHT22;27217;51.220;5.308;2023-01-15T04:09:28;7.60;99.90
41481;DHT22;27217;51.220;5.308;2023-01-15T04:11:58;7.70;99.90
41481;DHT22;27217;51.220;5.308;2023-01-15T04:14:24;7.60;99.90
41481;DHT22;27217;51.220;5.308;2023-01-15T04:16:50;7.40;99.90
41481;DHT22;27217;51.220;5.308;2023-01-15T04:19:20;7.60;99.90
41481;DHT22;27217;51.220;5.308;2023-01-15T04:21:45;7.50;99.90
41481;DHT22;27217;51.220;5.308;2023-01-15T04:24:12;7.60;99.90
41481;DHT22;27217;51.220;5.308;2023-01-15T04:26:37;7.60;99.90
41481;DHT22;27217;51.220;5.308;2023-01-15T04:29:03;7.40;99.90
41481;DHT22;27217;51.220;5.308;2023-01-15T04:31:29;7.50;99.90
41481;DHT22;27217;51.220;5.308;2023-01-15T04:33:58;7.50;99.90
41481;DHT22;27217;51.220;5.308;2023-01-15T04:36:24;7.50;99.90
41481;DHT22;27217;51.220;5.308;2023-01-15T04:38:50;7.60;99.90
41481;DHT22;27217;51.220;5.308;2023-01-15T04:41:16;7.50;99.90
41481;DHT22;27217;51.220;5.308;2023-01-15T04:44:00;7.50;99.90
41481;DHT22;27217;51.220;5.308;2023-01-15T04:49:00;7.40;99.90
41481;DHT22;27217;51.220;5.308;2023-01-15T04:51:26;7.40;99.90
41481;DHT22;27217;51.220;5.308;2023-01-15T04:53:51;7.60;99.90
41481;DHT22;27217;51.220;5.308;2023-01-15T04:56:18;7.60;99.90
41481;DHT22;27217;51.220;5.308;2023-01-15T04:58:43;7.60;99.90
41481;DHT22;27217;51.220;5.308;2023-01-15T05:01:14;7.60;99.90
41481;DHT22;27217;51.220;5.308;2023-01-15T05:03:41;7.50;99.90
41481;DHT22;27217;51.220;5.308;2023-01-15T05:06:07;7.60;99.90
41481;DHT22;27217;51.220;5.308;2023-01-15T05:08:34;7.60;99.90
41481;DHT22;27217;51.220;5.308;2023-01-15T05:11:05;7.60;99.90
41481;DHT22;27217;51.220;5.308;2023-01-15T05:13:31;7.40;99.90
41481;DHT22;27217;51.220;5.308;2023-01-15T05:16:18;7.40;99.90
41481;DHT22;27217;51.220;5.308;2023-01-15T05:18:45;7.50;99.90
41481;DHT22;27217;51.220;5.308;2023-01-15T05:21:25;7.50;99.90
41481;DHT22;27217;51.220;5.308;2023-01-15T05:23:54;7.50;99.90
41481;DHT22;27217;51.220;5.308;2023-01-15T05:26:24;7.60;99.90
41481;DHT22;27217;51.220;5.308;2023-01-15T05:28:53;7.60;99.90
41481;DHT22;27217;51.220;5.308;2023-01-15T05:31:19;7.60;99.90
41481;DHT22;27217;51.220;5.308;2023-01-15T05:33:47;7.60;99.90
41481;DHT22;27217;51.220;5.308;2023-01-15T05:36:15;7.30;99.90
41481;DHT22;27217;51.220;5.308;2023-01-15T05:38:42;7.30;99.90
41481;DHT22;27217;51.220;5.308;2023-01-15T05:41:11;7.30;99.90
41481;DHT22;27217;51.220;5.308;2023-01-15T05:43:59;7.20;99.90
41481;DHT22;27217;51.220;5.308;2023-01-15T05:46:25;7.30;99.90
41481;DHT22;27217;51.220;5.308;2023-01-15T05:48:51;7.30;99.90
41481;DHT22;27217;51.220;5.308;2023-01-15T05:51:17;7.20;99.90
41481;DHT22;27217;51.220;5.308;2023-01-15T05:53:43;7.00;99.90
41481;DHT22;27217;51.220;5.308;2023-01-15T05:56:09;7.10;99.90
41481;DHT22;27217;51.220;5.308;2023-01-15T05:58:36;7.10;99.90
41481;DHT22;27217;51.220;5.308;2023-01-15T06:01:06;7.20;99.90
41481;DHT22;27217;51.220;5.308;2023-01-15T06:03:32;7.10;99.90
41481;DHT22;27217;51.220;5.308;2023-01-15T06:05:59;7.20;99.90
41481;DHT22;27217;51.220;5.308;2023-01-15T06:08:25;7.00;99.90
41481;DHT22;27217;51.220;5.308;2023-01-15T06:10:51;7.00;99.90
41481;DHT22;27217;51.220;5.308;2023-01-15T06:13:17;7.10;99.90
41481;DHT22;27217;51.220;5.308;2023-01-15T06:15:43;7.20;99.90
41481;DHT22;27217;51.220;5.308;2023-01-15T06:18:10;7.00;99.90
41481;DHT22;27217;51.220;5.308;2023-01-15T06:20:36;7.00;99.90
41481;DHT22;27217;51.220;5.308;2023-01-15T06:23:02;6.90;99.90
41481;DHT22;27217;51.220;5.308;2023-01-15T06:25:28;7.10;99.90
41481;DHT22;27217;51.220;5.308;2023-01-15T06:27:54;7.00;99.90
41481;DHT22;27217;51.220;5.308;2023-01-15T06:30:20;7.00;99.90
41481;DHT22;27217;51.220;5.308;2023-01-15T06:32:46;6.80;99.90
41481;DHT22;27217;51.220;5.308;2023-01-15T06:35:12;6.90;99.90
41481;DHT22;27217;51.220;5.308;2023-01-15T06:37:38;6.80;99.90
41481;DHT22;27217;51.220;5.308;2023-01-15T06:40:04;6.80;99.90
41481;DHT22;27217;51.220;5.308;2023-01-15T06:42:31;6.90;99.90
41481;DHT22;27217;51.220;5.308;2023-01-15T06:45:16;6.80;99.90
41481;DHT22;27217;51.220;5.308;2023-01-15T06:48:01;7.00;99.90
41481;DHT22;27217;51.220;5.308;2023-01-15T06:50:27;6.90;99.90
41481;DHT22;27217;51.220;5.308;2023-01-15T06:52:52;6.80;99.90
41481;DHT22;27217;51.220;5.308;2023-01-15T06:55:18;6.90;99.90
41481;DHT22;27217;51.220;5.308;2023-01-15T06:57:45;6.90;99.90
41481;DHT22;27217;51.220;5.308;2023-01-15T07:00:11;6.90;99.90
41481;DHT22;27217;51.220;5.308;2023-01-15T07:02:37;6.80;99.90
41481;DHT22;27217;51.220;5.308;2023-01-15T07:05:05;6.70;99.90
41481;DHT22;27217;51.220;5.308;2023-01-15T07:07:32;6.70;99.90
41481;DHT22;27217;51.220;5.308;2023-01-15T07:09:58;6.60;99.90
41481;DHT22;27217;51.220;5.308;2023-01-15T07:12:24;6.50;99.90
41481;DHT22;27217;51.220;5.308;2023-01-15T07:14:50;6.50;99.90
41481;DHT22;27217;51.220;5.308;2023-01-15T07:17:17;6.60;99.90
41481;DHT22;27217;51.220;5.308;2023-01-15T07:19:44;6.50;99.90
41481;DHT22;27217;51.220;5.308;2023-01-15T07:22:11;6.30;99.90
41481;DHT22;27217;51.220;5.308;2023-01-15T07:24:37;6.50;99.90
41481;DHT22;27217;51.220;5.308;2023-01-15T07:27:03;6.40;99.90
41481;DHT22;27217;51.220;5.308;2023-01-15T07:29:30;6.30;99.90
41481;DHT22;27217;51.220;5.308;2023-01-15T07:31:56;6.30;99.90
41481;DHT22;27217;51.220;5.308;2023-01-15T07:34:22;6.40;99.90
41481;DHT22;27217;51.220;5.308;2023-01-15T07:36:48;6.30;99.90
41481;DHT22;27217;51.220;5.308;2023-01-15T07:39:14;6.20;99.90
41481;DHT22;27217;51.220;5.308;2023-01-15T07:41:40;6.10;99.90
41481;DHT22;27217;51.220;5.308;2023-01-15T07:44:24;6.00;99.90
41481;DHT22;27217;51.220;5.308;2023-01-15T07:47:20;5.90;99.90
41481;DHT22;27217;51.220;5.308;2023-01-15T07:50:15;5.80;99.90
41481;DHT22;27217;51.220;5.308;2023-01-15T07:52:41;5.80;99.90
41481;DHT22;27217;51.220;5.308;2023-01-15T07:55:09;5.80;99.90
41481;DHT22;27217;51.220;5.308;2023-01-15T07:57:37;5.80;99.90
41481;DHT22;27217;51.220;5.308;2023-01-15T08:00:18;5.70;99.90
41481;DHT22;27217;51.220;5.308;2023-01-15T08:02:45;5.70;99.90
41481;DHT22;27217;51.220;5.308;2023-01-15T08:05:14;5.70;99.90
41481;DHT22;27217;51.220;5.308;2023-01-15T08:07:41;5.70;99.90
41481;DHT22;27217;51.220;5.308;2023-01-15T08:10:12;5.80;99.90
41481;DHT22;27217;51.220;5.308;2023-01-15T08:12:38;5.80;99.90
41481;DHT22;27217;51.220;5.308;2023-01-15T08:15:23;5.50;99.90
41481;DHT22;27217;51.220;5.308;2023-01-15T08:17:50;5.50;99.90
41481;DHT22;27217;51.220;5.308;2023-01-15T08:20:23;5.50;99.90
41481;DHT22;27217;51.220;5.308;2023-01-15T08:22:50;5.30;99.90
41481;DHT22;27217;51.220;5.308;2023-01-15T08:25:18;5.30;99.90
41481;DHT22;27217;51.220;5.308;2023-01-15T08:27:46;5.40;99.90
41481;DHT22;27217;51.220;5.308;2023-01-15T08:30:20;5.60;99.90
41481;DHT22;27217;51.220;5.308;2023-01-15T08:32:47;5.70;99.90
41481;DHT22;27217;51.220;5.308;2023-01-15T08:35:13;5.80;99.90
41481;DHT22;27217;51.220;5.308;2023-01-15T08:37:40;5.60;99.90
41481;DHT22;27217;51.220;5.308;2023-01-15T08:40:07;5.60;99.90
41481;DHT22;27217;51.220;5.308;2023-01-15T08:42:34;5.60;99.90
41481;DHT22;27217;51.220;5.308;2023-01-15T08:45:00;5.80;99.90
41481;DHT22;27217;51.220;5.308;2023-01-15T08:47:26;5.50;99.90
41481;DHT22;27217;51.220;5.308;2023-01-15T08:49:52;5.70;99.90
41481;DHT22;27217;51.220;5.308;2023-01-15T08:52:18;5.90;99.90
41481;DHT22;27217;51.220;5.308;2023-01-15T08:54:44;5.80;99.90
41481;DHT22;27217;51.220;5.308;2023-01-15T08:57:09;5.90;99.90
41481;DHT22;27217;51.220;5.308;2023-01-15T08:59:36;5.90;99.90
41481;DHT22;27217;51.220;5.308;2023-01-15T09:02:02;5.80;99.90
41481;DHT22;27217;51.220;5.308;2023-01-15T09:04:28;5.90;99.90
41481;DHT22;27217;51.220;5.308;2023-01-15T09:06:55;5.90;99.90
41481;DHT22;27217;51.220;5.308;2023-01-15T09:09:21;5.90;99.90
41481;DHT22;27217;51.220;5.308;2023-01-15T09:11:47;6.10;99.90
41481;DHT22;27217;51.220;5.308;2023-01-15T09:14:14;6.30;99.90
41481;DHT22;27217;51.220;5.308;2023-01-15T09:16:40;6.20;99.90
41481;DHT22;27217;51.220;5.308;2023-01-15T09:19:06;6.20;99.90
41481;DHT22;27217;51.220;5.308;2023-01-15T09:21:33;6.20;99.90
41481;DHT22;27217;51.220;5.308;2023-01-15T09:23:59;6.20;99.90
41481;DHT22;27217;51.220;5.308;2023-01-15T09:26:34;6.20;99.90
41481;DHT22;27217;51.220;5.308;2023-01-15T09:29:02;6.30;99.90
41481;DHT22;27217;51.220;5.308;2023-01-15T09:31:29;6.40;99.90
41481;DHT22;27217;51.220;5.308;2023-01-15T09:33:55;6.50;99.90
41481;DHT22;27217;51.220;5.308;2023-01-15T09:36:24;6.70;99.90
41481;DHT22;27217;51.220;5.308;2023-01-15T09:38:52;6.60;99.90
41481;DHT22;27217;51.220;5.308;2023-01-15T09:41:18;6.60;99.90
41481;DHT22;27217;51.220;5.308;2023-01-15T09:55:17;7.00;99.90
41481;DHT22;27217;51.220;5.308;2023-01-15T09:57:44;7.10;99.90
41481;DHT22;27217;51.220;5.308;2023-01-15T10:00:23;7.10;99.90
41481;DHT22;27217;51.220;5.308;2023-01-15T10:03:00;7.10;99.90
41481;DHT22;27217;51.220;5.308;2023-01-15T10:11:37;7.20;99.90
41481;DHT22;27217;51.220;5.308;2023-01-15T10:14:04;6.90;99.90
41481;DHT22;27217;51.220;5.308;2023-01-15T10:16:32;7.00;99.90
41481;DHT22;27217;51.220;5.308;2023-01-15T10:19:01;7.20;99.90
41481;DHT22;27217;51.220;5.308;2023-01-15T10:21:51;7.20;99.90
41481;DHT22;27217;51.220;5.308;2023-01-15T10:24:34;7.30;99.90
41481;DHT22;27217;51.220;5.308;2023-01-15T10:27:10;7.20;99.90
41481;DHT22;27217;51.220;5.308;2023-01-15T10:29:58;7.30;99.90
41481;DHT22;27217;51.220;5.308;2023-01-15T10:45:53;7.10;99.90
41481;DHT22;27217;51.220;5.308;2023-01-15T10:48:30;7.10;99.90
41481;DHT22;27217;51.220;5.308;2023-01-15T10:51:01;7.00;99.90
41481;DHT22;27217;51.220;5.308;2023-01-15T10:53:41;7.00;99.90
41481;DHT22;27217;51.220;5.308;2023-01-15T11:01:38;7.90;99.90
41481;DHT22;27217;51.220;5.308;2023-01-15T11:04:07;7.40;99.90
41481;DHT22;27217;51.220;5.308;2023-01-15T11:06:32;7.70;99.90
41481;DHT22;27217;51.220;5.308;2023-01-15T11:08:59;8.00;99.90
41481;DHT22;27217;51.220;5.308;2023-01-15T11:11:35;8.10;99.90
41481;DHT22;27217;51.220;5.308;2023-01-15T11:14:48;8.30;99.90
41481;DHT22;27217;51.220;5.308;2023-01-15T11:17:44;8.40;99.90
41481;DHT22;27217;51.220;5.308;2023-01-15T11:20:42;8.00;99.90
41481;DHT22;27217;51.220;5.308;2023-01-15T11:23:14;7.90;99.90
41481;DHT22;27217;51.220;5.308;2023-01-15T11:25:54;8.00;99.90
41481;DHT22;27217;51.220;5.308;2023-01-15T11:28:37;7.90;99.90
41481;DHT22;27217;51.220;5.308;2023-01-15T11:31:11;8.00;99.90
41481;DHT22;27217;51.220;5.308;2023-01-15T11:33:38;7.90;99.90
41481;DHT22;27217;51.220;5.308;2023-01-15T11:36:07;8.30;99.90
41481;DHT22;27217;51.220;5.308;2023-01-15T11:38:45;8.50;99.90
41481;DHT22;27217;51.220;5.308;2023-01-15T11:41:22;8.20;99.90
41481;DHT22;27217;51.220;5.308;2023-01-15T11:43:54;7.90;99.90
41481;DHT22;27217;51.220;5.308;2023-01-15T11:46:38;8.40;99.90
41481;DHT22;27217;51.220;5.308;2023-01-15T11:49:23;8.40;99.90
41481;DHT22;27217;51.220;5.308;2023-01-15T11:52:10;8.10;99.90
41481;DHT22;27217;51.220;5.308;2023-01-15T11:54:42;8.10;99.90
41481;DHT22;27217;51.220;5.308;2023-01-15T11:57:10;8.00;99.90
41481;DHT22;27217;51.220;5.308;2023-01-15T11:59:37;7.80;99.90
41481;DHT22;27217;51.220;5.308;2023-01-15T12:02:30;7.70;99.90
41481;DHT22;27217;51.220;5.308;2023-01-15T12:04:59;7.80;99.90
41481;DHT22;27217;51.220;5.308;2023-01-15T12:07:28;7.60;99.90
41481;DHT22;27217;51.220;5.308;2023-01-15T12:18:18;7.40;99.90
41481;DHT22;27217;51.220;5.308;2023-01-15T12:21:00;7.40;99.90
41481;DHT22;27217;51.220;5.308;2023-01-15T12:29:42;7.40;99.90
41481;DHT22;27217;51.220;5.308;2023-01-15T12:32:13;7.30;99.90
41481;DHT22;27217;51.220;5.308;2023-01-15T12:37:35;7.30;99.90
41481;DHT22;27217;51.220;5.308;2023-01-15T12:40:21;7.40;99.90
41481;DHT22;27217;51.220;5.308;2023-01-15T12:42:51;7.50;99.90
41481;DHT22;27217;51.220;5.308;2023-01-15T12:45:40;7.50;99.90
41481;DHT22;27217;51.220;5.308;2023-01-15T12:48:28;7.50;99.90
41481;DHT22;27217;51.220;5.308;2023-01-15T12:50:59;7.50;99.90
41481;DHT22;27217;51.220;5.308;2023-01-15T12:53:38;7.30;99.90
41481;DHT22;27217;51.220;5.308;2023-01-15T12:56:13;7.40;99.90
41481;DHT22;27217;51.220;5.308;2023-01-15T12:59:03;7.40;99.90
41481;DHT22;27217;51.220;5.308;2023-01-15T13:09:44;7.40;99.90
41481;DHT22;27217;51.220;5.308;2023-01-15T13:12:14;7.40;99.90
41481;DHT22;27217;51.220;5.308;2023-01-15T13:14:42;7.30;99.90
41481;DHT22;27217;51.220;5.308;2023-01-15T13:23:06;7.30;99.90
41481;DHT22;27217;51.220;5.308;2023-01-15T13:33:52;7.50;99.90
41481;DHT22;27217;51.220;5.308;2023-01-15T13:36:24;7.50;99.90
41481;DHT22;27217;51.220;5.308;2023-01-15T13:38:54;7.40;99.90
41481;DHT22;27217;51.220;5.308;2023-01-15T13:41:29;7.50;99.90
41481;DHT22;27217;51.220;5.308;2023-01-15T13:44:22;7.50;99.90
41481;DHT22;27217;51.220;5.308;2023-01-15T13:47:05;7.50;99.90
41481;DHT22;27217;51.220;5.308;2023-01-15T13:49:34;7.40;99.90
41481;DHT22;27217;51.220;5.308;2023-01-15T13:52:03;7.60;99.90
41481;DHT22;27217;51.220;5.308;2023-01-15T13:54:32;7.40;99.90
41481;DHT22;27217;51.220;5.308;2023-01-15T13:57:31;7.60;99.90
41481;DHT22;27217;51.220;5.308;2023-01-15T13:59:57;7.50;99.90
41481;DHT22;27217;51.220;5.308;2023-01-15T14:02:30;7.70;99.90
41481;DHT22;27217;51.220;5.308;2023-01-15T14:05:21;7.60;99.90
41481;DHT22;27217;51.220;5.308;2023-01-15T14:07:49;7.40;99.90
41481;DHT22;27217;51.220;5.308;2023-01-15T14:21:19;7.60;99.90
41481;DHT22;27217;51.220;5.308;2023-01-15T14:24:01;7.60;99.90
41481;DHT22;27217;51.220;5.308;2023-01-15T14:34:59;7.30;99.90
41481;DHT22;27217;51.220;5.308;2023-01-15T14:37:31;7.10;99.90
41481;DHT22;27217;51.220;5.308;2023-01-15T14:39:59;7.10;99.90
41481;DHT22;27217;51.220;5.308;2023-01-15T14:42:35;7.10;99.90
41481;DHT22;27217;51.220;5.308;2023-01-15T14:45:35;7.40;99.90
41481;DHT22;27217;51.220;5.308;2023-01-15T14:53:48;7.90;99.90
41481;DHT22;27217;51.220;5.308;2023-01-15T15:01:43;7.60;99.90
41481;DHT22;27217;51.220;5.308;2023-01-15T15:04:26;7.40;99.90
41481;DHT22;27217;51.220;5.308;2023-01-15T15:07:04;7.20;99.90
41481;DHT22;27217;51.220;5.308;2023-01-15T15:09:37;7.20;99.90
41481;DHT22;27217;51.220;5.308;2023-01-15T15:26:35;6.80;99.90
41481;DHT22;27217;51.220;5.308;2023-01-15T15:29:04;6.80;99.90
41481;DHT22;27217;51.220;5.308;2023-01-15T15:31:36;6.90;99.90
41481;DHT22;27217;51.220;5.308;2023-01-15T15:34:05;6.90;99.90
41481;DHT22;27217;51.220;5.308;2023-01-15T15:36:34;7.00;99.90
41481;DHT22;27217;51.220;5.308;2023-01-15T15:39:21;6.90;99.90
41481;DHT22;27217;51.220;5.308;2023-01-15T15:41:50;6.80;99.90
41481;DHT22;27217;51.220;5.308;2023-01-15T15:47:25;6.80;99.90
41481;DHT22;27217;51.220;5.308;2023-01-15T15:50:33;6.70;99.90
41481;DHT22;27217;51.220;5.308;2023-01-15T15:53:00;6.80;99.90
41481;DHT22;27217;51.220;5.308;2023-01-15T15:55:37;6.70;99.90
41481;DHT22;27217;51.220;5.308;2023-01-15T15:58:03;6.80;99.90
41481;DHT22;27217;51.220;5.308;2023-01-15T16:00:37;6.80;99.90
41481;DHT22;27217;51.220;5.308;2023-01-15T16:03:16;6.80;99.90
41481;DHT22;27217;51.220;5.308;2023-01-15T16:06:16;6.70;99.90
41481;DHT22;27217;51.220;5.308;2023-01-15T16:08:52;6.70;99.90
41481;DHT22;27217;51.220;5.308;2023-01-15T16:11:18;6.70;99.90
41481;DHT22;27217;51.220;5.308;2023-01-15T16:13:49;6.70;99.90
41481;DHT22;27217;51.220;5.308;2023-01-15T16:16:17;6.70;99.90
41481;DHT22;27217;51.220;5.308;2023-01-15T16:18:51;6.70;99.90
41481;DHT22;27217;51.220;5.308;2023-01-15T16:21:32;6.70;99.90
41481;DHT22;27217;51.220;5.308;2023-01-15T16:24:03;6.70;99.90
41481;DHT22;27217;51.220;5.308;2023-01-15T16:26:37;6.60;99.90
41481;DHT22;27217;51.220;5.308;2023-01-15T16:29:05;6.60;99.90
41481;DHT22;27217;51.220;5.308;2023-01-15T16:31:34;6.70;99.90
41481;DHT22;27217;51.220;5.308;2023-01-15T16:34:01;6.60;99.90
41481;DHT22;27217;51.220;5.308;2023-01-15T16:36:27;6.70;99.90
41481;DHT22;27217;51.220;5.308;2023-01-15T16:39:02;6.60;99.90
41481;DHT22;27217;51.220;5.308;2023-01-15T16:41:39;6.60;99.90
41481;DHT22;27217;51.220;5.308;2023-01-15T16:44:06;6.60;99.90
41481;DHT22;27217;51.220;5.308;2023-01-15T16:46:51;6.70;99.90
41481;DHT22;27217;51.220;5.308;2023-01-15T16:51:51;6.70;99.90
41481;DHT22;27217;51.220;5.308;2023-01-15T16:57:00;6.60;99.90
41481;DHT22;27217;51.220;5.308;2023-01-15T17:02:20;6.60;99.90
41481;DHT22;27217;51.220;5.308;2023-01-15T17:04:54;6.60;99.90
41481;DHT22;27217;51.220;5.308;2023-01-15T17:07:36;6.50;99.90
41481;DHT22;27217;51.220;5.308;2023-01-15T17:10:05;6.40;99.90
41481;DHT22;27217;51.220;5.308;2023-01-15T17:12:45;6.50;99.90
41481;DHT22;27217;51.220;5.308;2023-01-15T17:17:41;6.40;99.90
41481;DHT22;27217;51.220;5.308;2023-01-15T17:20:10;6.30;99.90
41481;DHT22;27217;51.220;5.308;2023-01-15T17:22:40;6.40;99.90
41481;DHT22;27217;51.220;5.308;2023-01-15T17:25:27;6.40;99.90
41481;DHT22;27217;51.220;5.308;2023-01-15T17:27:56;6.30;99.90
41481;DHT22;27217;51.220;5.308;2023-01-15T17:30:24;6.20;99.90
41481;DHT22;27217;51.220;5.308;2023-01-15T17:32:55;6.20;99.90
41481;DHT22;27217;51.220;5.308;2023-01-15T17:35:25;6.20;99.90
41481;DHT22;27217;51.220;5.308;2023-01-15T17:37:52;6.20;99.90
41481;DHT22;27217;51.220;5.308;2023-01-15T17:40:18;6.10;99.90
41481;DHT22;27217;51.220;5.308;2023-01-15T17:42:44;6.10;99.90
41481;DHT22;27217;51.220;5.308;2023-01-15T17:45:30;6.00;99.90
41481;DHT22;27217;51.220;5.308;2023-01-15T17:47:56;6.10;99.90
41481;DHT22;27217;51.220;5.308;2023-01-15T17:50:23;6.00;99.90
41481;DHT22;27217;51.220;5.308;2023-01-15T17:52:49;5.90;99.90
41481;DHT22;27217;51.220;5.308;2023-01-15T17:55:21;5.80;99.90
41481;DHT22;27217;51.220;5.308;2023-01-15T17:58:07;5.80;99.90
41481;DHT22;27217;51.220;5.308;2023-01-15T18:00:53;5.80;99.90
41481;DHT22;27217;51.220;5.308;2023-01-15T18:03:58;5.70;99.90
41481;DHT22;27217;51.220;5.308;2023-01-15T18:06:47;5.90;99.90
41481;DHT22;27217;51.220;5.308;2023-01-15T18:09:15;6.00;99.90
41481;DHT22;27217;51.220;5.308;2023-01-15T18:11:42;5.90;99.90
41481;DHT22;27217;51.220;5.308;2023-01-15T18:14:08;6.20;99.90
41481;DHT22;27217;51.220;5.308;2023-01-15T18:16:34;6.00;99.90
41481;DHT22;27217;51.220;5.308;2023-01-15T18:18:59;6.00;99.90
41481;DHT22;27217;51.220;5.308;2023-01-15T18:21:26;6.00;99.90
41481;DHT22;27217;51.220;5.308;2023-01-15T18:23:52;5.90;99.90
41481;DHT22;27217;51.220;5.308;2023-01-15T18:26:18;5.90;99.90
41481;DHT22;27217;51.220;5.308;2023-01-15T18:28:44;5.60;99.90
41481;DHT22;27217;51.220;5.308;2023-01-15T18:31:11;5.50;99.90
41481;DHT22;27217;51.220;5.308;2023-01-15T18:33:37;5.50;99.90
41481;DHT22;27217;51.220;5.308;2023-01-15T18:36:08;5.50;99.90
41481;DHT22;27217;51.220;5.308;2023-01-15T18:38:35;5.40;99.90
41481;DHT22;27217;51.220;5.308;2023-01-15T18:41:09;5.60;99.90
41481;DHT22;27217;51.220;5.308;2023-01-15T18:43:36;5.60;99.90